ICE51R BIAR-BIRK
Flight info
| Callsign | ICE51R |
|---|---|
| Flight time | 0h 33m |
| Altitude | 20000 |
| Route | EXINU |
| Aircraft | A21N/M-SDE2E3FGHIRWXY/LB1 |
Departure
| Time | 2026-05-08 11:06 |
|---|---|
| Airport | Akureyri International Airport (BIAR) |
Arrival
| Time | 2026-05-08 11:39 |
|---|---|
| Airport | Reykjavík Domestic Airport (BIRK) |
| Time | Latitude | Longitude | Altitude | Speed | Heading |
|---|---|---|---|---|---|
| 2026-05-08 10:41 | 65.65411 | -18.07491 | 18 ft | 0 kts | 25° |
| 2026-05-08 10:47 | 65.65411 | -18.07490 | 17 ft | 0 kts | 26° |
| 2026-05-08 11:02 | 65.65414 | -18.07488 | 17 ft | 3 kts | 26° |
| 2026-05-08 11:03 | 65.65456 | -18.07438 | 17 ft | 8 kts | 28° |
| 2026-05-08 11:03 | 65.65478 | -18.07312 | 18 ft | 13 kts | 82° |
| 2026-05-08 11:03 | 65.65439 | -18.07163 | 15 ft | 9 kts | 172° |
| 2026-05-08 11:03 | 65.65380 | -18.07150 | 15 ft | 8 kts | 176° |
| 2026-05-08 11:04 | 65.65280 | -18.07134 | 15 ft | 23 kts | 177° |
| 2026-05-08 11:04 | 65.65084 | -18.07099 | 19 ft | 34 kts | 176° |
| 2026-05-08 11:04 | 65.64827 | -18.07050 | 17 ft | 38 kts | 175° |
| 2026-05-08 11:04 | 65.64574 | -18.07000 | 15 ft | 30 kts | 176° |
| 2026-05-08 11:05 | 65.64466 | -18.06973 | 19 ft | 5 kts | 249° |
| 2026-05-08 11:05 | 65.64477 | -18.06990 | 18 ft | 1 kts | 355° |
| 2026-05-08 11:05 | 65.64563 | -18.06996 | 16 ft | 43 kts | 357° |
| 2026-05-08 11:05 | 65.65104 | -18.07095 | 19 ft | 111 kts | 355° |
| 2026-05-08 11:06 | 65.66041 | -18.07243 | 203 ft | 144 kts | 358° |
| 2026-05-08 11:06 | 65.67011 | -18.07377 | 969 ft | 138 kts | 356° |
| 2026-05-08 11:06 | 65.67972 | -18.07494 | 1575 ft | 138 kts | 358° |
| 2026-05-08 11:06 | 65.68961 | -18.07477 | 2138 ft | 148 kts | 1° |
| 2026-05-08 11:07 | 65.70027 | -18.07428 | 2655 ft | 158 kts | 0° |
| 2026-05-08 11:07 | 65.71147 | -18.07342 | 3167 ft | 164 kts | 2° |
| 2026-05-08 11:07 | 65.72299 | -18.07180 | 3743 ft | 167 kts | 2° |
| 2026-05-08 11:07 | 65.73467 | -18.07092 | 4339 ft | 167 kts | 357° |
| 2026-05-08 11:08 | 65.74537 | -18.08029 | 4933 ft | 167 kts | 319° |
| 2026-05-08 11:08 | 65.75112 | -18.10465 | 5486 ft | 172 kts | 281° |
| 2026-05-08 11:08 | 65.75155 | -18.13329 | 6068 ft | 171 kts | 272° |
| 2026-05-08 11:08 | 65.75144 | -18.16258 | 6555 ft | 177 kts | 272° |
| 2026-05-08 11:09 | 65.75073 | -18.19277 | 7090 ft | 178 kts | 259° |
| 2026-05-08 11:09 | 65.74550 | -18.22069 | 7484 ft | 190 kts | 236° |
| 2026-05-08 11:09 | 65.73604 | -18.24617 | 7639 ft | 216 kts | 229° |
| 2026-05-08 11:09 | 65.72513 | -18.27443 | 7924 ft | 240 kts | 229° |
| 2026-05-08 11:10 | 65.71317 | -18.30553 | 8280 ft | 263 kts | 229° |
| 2026-05-08 11:10 | 65.70027 | -18.33919 | 8802 ft | 278 kts | 229° |
| 2026-05-08 11:10 | 65.68707 | -18.37362 | 9611 ft | 284 kts | 228° |
| 2026-05-08 11:10 | 65.67174 | -18.40464 | 10400 ft | 292 kts | 214° |
| 2026-05-08 11:11 | 65.65271 | -18.42750 | 10711 ft | 317 kts | 199° |
| 2026-05-08 11:11 | 65.63055 | -18.44125 | 10939 ft | 341 kts | 194° |
| 2026-05-08 11:11 | 65.60667 | -18.45490 | 11213 ft | 361 kts | 194° |
| 2026-05-08 11:11 | 65.58185 | -18.46910 | 11837 ft | 369 kts | 194° |
| 2026-05-08 11:12 | 65.55700 | -18.48342 | 12576 ft | 373 kts | 194° |
| 2026-05-08 11:12 | 65.53159 | -18.49815 | 13325 ft | 378 kts | 195° |
| 2026-05-08 11:12 | 65.50583 | -18.51315 | 14064 ft | 382 kts | 195° |
| 2026-05-08 11:12 | 65.47983 | -18.52830 | 14706 ft | 387 kts | 195° |
| 2026-05-08 11:13 | 65.45358 | -18.54361 | 15347 ft | 391 kts | 195° |
| 2026-05-08 11:13 | 65.42701 | -18.55906 | 15975 ft | 395 kts | 195° |
| 2026-05-08 11:13 | 65.40009 | -18.57456 | 16552 ft | 401 kts | 195° |
| 2026-05-08 11:13 | 65.37278 | -18.59026 | 17162 ft | 405 kts | 195° |
| 2026-05-08 11:14 | 65.34523 | -18.60610 | 17757 ft | 409 kts | 195° |
| 2026-05-08 11:14 | 65.31740 | -18.62202 | 18304 ft | 413 kts | 195° |
| 2026-05-08 11:14 | 65.28923 | -18.63812 | 18850 ft | 417 kts | 196° |
| 2026-05-08 11:14 | 65.26087 | -18.65441 | 19349 ft | 421 kts | 196° |
| 2026-05-08 11:15 | 65.23296 | -18.67346 | 19805 ft | 424 kts | 203° |
| 2026-05-08 11:15 | 65.20599 | -18.70208 | 20201 ft | 424 kts | 212° |
| 2026-05-08 11:15 | 65.18103 | -18.73977 | 20296 ft | 427 kts | 221° |
| 2026-05-08 11:15 | 65.15846 | -18.78663 | 20311 ft | 433 kts | 230° |
| 2026-05-08 11:16 | 65.13798 | -18.83915 | 20301 ft | 434 kts | 232° |
| 2026-05-08 11:16 | 65.11738 | -18.89197 | 20303 ft | 435 kts | 231° |
| 2026-05-08 11:16 | 65.09670 | -18.94443 | 20302 ft | 435 kts | 231° |
| 2026-05-08 11:16 | 65.07593 | -18.99676 | 20302 ft | 435 kts | 231° |
| 2026-05-08 11:17 | 65.05541 | -19.04838 | 20298 ft | 435 kts | 231° |
| 2026-05-08 11:17 | 65.03468 | -19.10050 | 20395 ft | 437 kts | 231° |
| 2026-05-08 11:17 | 65.01388 | -19.15277 | 20289 ft | 436 kts | 231° |
| 2026-05-08 11:17 | 64.99305 | -19.20506 | 20270 ft | 437 kts | 231° |
| 2026-05-08 11:18 | 64.97223 | -19.25733 | 20272 ft | 437 kts | 231° |
| 2026-05-08 11:18 | 64.95132 | -19.30960 | 20276 ft | 438 kts | 231° |
| 2026-05-08 11:18 | 64.93037 | -19.36178 | 20277 ft | 438 kts | 231° |
| 2026-05-08 11:18 | 64.90939 | -19.41391 | 20276 ft | 438 kts | 231° |
| 2026-05-08 11:19 | 64.88837 | -19.46597 | 20277 ft | 439 kts | 231° |
| 2026-05-08 11:19 | 64.86733 | -19.51786 | 20281 ft | 439 kts | 231° |
| 2026-05-08 11:19 | 64.84629 | -19.56971 | 20272 ft | 437 kts | 231° |
| 2026-05-08 11:19 | 64.82536 | -19.62117 | 19909 ft | 433 kts | 231° |
| 2026-05-08 11:20 | 64.80462 | -19.67202 | 19508 ft | 429 kts | 231° |
| 2026-05-08 11:20 | 64.78405 | -19.72238 | 19110 ft | 426 kts | 230° |
| 2026-05-08 11:20 | 64.76362 | -19.77223 | 18714 ft | 422 kts | 230° |
| 2026-05-08 11:20 | 64.74332 | -19.82169 | 18287 ft | 419 kts | 230° |
| 2026-05-08 11:21 | 64.72345 | -19.87000 | 17821 ft | 416 kts | 230° |
| 2026-05-08 11:21 | 64.70345 | -19.91856 | 17379 ft | 413 kts | 230° |
| 2026-05-08 11:21 | 64.68356 | -19.96672 | 16937 ft | 410 kts | 230° |
| 2026-05-08 11:21 | 64.66382 | -20.01439 | 16510 ft | 406 kts | 230° |
| 2026-05-08 11:22 | 64.64425 | -20.06160 | 16088 ft | 403 kts | 230° |
| 2026-05-08 11:22 | 64.62479 | -20.10841 | 15664 ft | 400 kts | 229° |
| 2026-05-08 11:22 | 64.60548 | -20.15473 | 15286 ft | 396 kts | 229° |
| 2026-05-08 11:22 | 64.58631 | -20.20061 | 15005 ft | 394 kts | 229° |
| 2026-05-08 11:23 | 64.56721 | -20.24624 | 14718 ft | 392 kts | 229° |
| 2026-05-08 11:23 | 64.54821 | -20.29147 | 14445 ft | 390 kts | 229° |
| 2026-05-08 11:23 | 64.52927 | -20.33648 | 14177 ft | 388 kts | 229° |
| 2026-05-08 11:23 | 64.51040 | -20.38129 | 13876 ft | 388 kts | 229° |
| 2026-05-08 11:24 | 64.49157 | -20.42593 | 13553 ft | 386 kts | 229° |
| 2026-05-08 11:24 | 64.47278 | -20.47041 | 13231 ft | 384 kts | 229° |
| 2026-05-08 11:24 | 64.45412 | -20.51450 | 12935 ft | 382 kts | 229° |
| 2026-05-08 11:24 | 64.43576 | -20.55775 | 12641 ft | 380 kts | 229° |
| 2026-05-08 11:25 | 64.41720 | -20.60129 | 12327 ft | 378 kts | 229° |
| 2026-05-08 11:25 | 64.39873 | -20.64455 | 12031 ft | 376 kts | 228° |
| 2026-05-08 11:25 | 64.38037 | -20.68752 | 11739 ft | 374 kts | 228° |
| 2026-05-08 11:25 | 64.36208 | -20.73024 | 11452 ft | 373 kts | 228° |
| 2026-05-08 11:26 | 64.34385 | -20.77276 | 11165 ft | 371 kts | 228° |
| 2026-05-08 11:26 | 64.32591 | -20.81449 | 10883 ft | 370 kts | 228° |
| 2026-05-08 11:26 | 64.30780 | -20.85650 | 10602 ft | 368 kts | 228° |
| 2026-05-08 11:26 | 64.28973 | -20.89836 | 10323 ft | 367 kts | 227° |
| 2026-05-08 11:27 | 64.27178 | -20.93990 | 10033 ft | 365 kts | 227° |
| 2026-05-08 11:27 | 64.25401 | -20.98091 | 9720 ft | 355 kts | 227° |
| 2026-05-08 11:27 | 64.23707 | -21.01986 | 9416 ft | 344 kts | 227° |
| 2026-05-08 11:27 | 64.22031 | -21.05823 | 9105 ft | 334 kts | 227° |
| 2026-05-08 11:28 | 64.20403 | -21.09546 | 8805 ft | 325 kts | 227° |
| 2026-05-08 11:28 | 64.18823 | -21.13160 | 8505 ft | 317 kts | 227° |
| 2026-05-08 11:28 | 64.17284 | -21.16685 | 8213 ft | 309 kts | 228° |
| 2026-05-08 11:28 | 64.15779 | -21.20131 | 7917 ft | 301 kts | 228° |
| 2026-05-08 11:29 | 64.14307 | -21.23497 | 7609 ft | 295 kts | 228° |
| 2026-05-08 11:29 | 64.12885 | -21.26735 | 7343 ft | 289 kts | 228° |
| 2026-05-08 11:29 | 64.11462 | -21.29960 | 7057 ft | 284 kts | 228° |
| 2026-05-08 11:29 | 64.10071 | -21.33109 | 6775 ft | 279 kts | 228° |
| 2026-05-08 11:30 | 64.08705 | -21.36206 | 6477 ft | 272 kts | 228° |
| 2026-05-08 11:30 | 64.07395 | -21.39163 | 6187 ft | 262 kts | 228° |
| 2026-05-08 11:30 | 64.06106 | -21.42073 | 5891 ft | 258 kts | 228° |
| 2026-05-08 11:30 | 64.04833 | -21.44950 | 5622 ft | 257 kts | 228° |
| 2026-05-08 11:31 | 64.03586 | -21.47759 | 5360 ft | 252 kts | 228° |
| 2026-05-08 11:31 | 64.02362 | -21.50516 | 5172 ft | 241 kts | 228° |
| 2026-05-08 11:31 | 64.01178 | -21.53175 | 5098 ft | 238 kts | 229° |
| 2026-05-08 11:31 | 63.99993 | -21.55836 | 5103 ft | 240 kts | 228° |
| 2026-05-08 11:32 | 63.98804 | -21.58504 | 5111 ft | 240 kts | 228° |
| 2026-05-08 11:32 | 63.97614 | -21.61169 | 5106 ft | 239 kts | 228° |
| 2026-05-08 11:32 | 63.96423 | -21.63829 | 5096 ft | 238 kts | 229° |
| 2026-05-08 11:32 | 63.95435 | -21.66703 | 5102 ft | 231 kts | 243° |
| 2026-05-08 11:33 | 63.94801 | -21.70019 | 5108 ft | 226 kts | 257° |
| 2026-05-08 11:33 | 63.94535 | -21.73510 | 5111 ft | 223 kts | 269° |
| 2026-05-08 11:33 | 63.94417 | -21.77038 | 4911 ft | 224 kts | 269° |
| 2026-05-08 11:33 | 63.94292 | -21.80564 | 4583 ft | 222 kts | 269° |
| 2026-05-08 11:34 | 63.94182 | -21.84036 | 4271 ft | 217 kts | 273° |
| 2026-05-08 11:34 | 63.94522 | -21.87195 | 3977 ft | 201 kts | 301° |
| 2026-05-08 11:34 | 63.95398 | -21.89485 | 3738 ft | 184 kts | 325° |
| 2026-05-08 11:34 | 63.96501 | -21.90607 | 3510 ft | 167 kts | 345° |
| 2026-05-08 11:35 | 63.97630 | -21.90868 | 3261 ft | 157 kts | 353° |
| 2026-05-08 11:35 | 63.98665 | -21.91054 | 3031 ft | 144 kts | 353° |
| 2026-05-08 11:35 | 63.99646 | -21.91241 | 2839 ft | 139 kts | 353° |
| 2026-05-08 11:35 | 64.00599 | -21.91421 | 2643 ft | 138 kts | 353° |
| 2026-05-08 11:36 | 64.01557 | -21.91602 | 2454 ft | 138 kts | 353° |
| 2026-05-08 11:36 | 64.02510 | -21.91775 | 2263 ft | 137 kts | 354° |
| 2026-05-08 11:36 | 64.03462 | -21.91930 | 2108 ft | 137 kts | 354° |
| 2026-05-08 11:36 | 64.04413 | -21.92114 | 1922 ft | 136 kts | 353° |
| 2026-05-08 11:37 | 64.05355 | -21.92334 | 1717 ft | 136 kts | 353° |
| 2026-05-08 11:37 | 64.06289 | -21.92512 | 1532 ft | 136 kts | 355° |
| 2026-05-08 11:37 | 64.07235 | -21.92655 | 1360 ft | 136 kts | 355° |
| 2026-05-08 11:37 | 64.08177 | -21.92838 | 1163 ft | 136 kts | 353° |
| 2026-05-08 11:38 | 64.09116 | -21.93036 | 873 ft | 135 kts | 353° |
| 2026-05-08 11:38 | 64.10049 | -21.93216 | 588 ft | 133 kts | 355° |
| 2026-05-08 11:38 | 64.10966 | -21.93367 | 401 ft | 134 kts | 355° |
| 2026-05-08 11:38 | 64.11895 | -21.93558 | 108 ft | 133 kts | 354° |
| 2026-05-08 11:39 | 64.12770 | -21.93732 | 42 ft | 112 kts | 354° |
| 2026-05-08 11:39 | 64.13199 | -21.93815 | 48 ft | 32 kts | 354° |
| 2026-05-08 11:39 | 64.13422 | -21.93861 | 42 ft | 33 kts | 355° |
| 2026-05-08 11:39 | 64.13614 | -21.93863 | 36 ft | 8 kts | 24° |
| 2026-05-08 11:40 | 64.13629 | -21.93920 | 34 ft | 3 kts | 224° |
| 2026-05-08 11:40 | 64.13593 | -21.93904 | 35 ft | 16 kts | 164° |
| 2026-05-08 11:40 | 64.13472 | -21.93870 | 39 ft | 15 kts | 171° |
| 2026-05-08 11:40 | 64.13388 | -21.93849 | 43 ft | 11 kts | 175° |
| 2026-05-08 11:41 | 64.13296 | -21.93835 | 48 ft | 13 kts | 176° |
| 2026-05-08 11:41 | 64.13209 | -21.93820 | 48 ft | 12 kts | 175° |
| 2026-05-08 11:41 | 64.13162 | -21.93840 | 45 ft | 9 kts | 220° |
| 2026-05-08 11:41 | 64.13151 | -21.93939 | 46 ft | 8 kts | 263° |
| 2026-05-08 11:42 | 64.13142 | -21.94129 | 42 ft | 13 kts | 263° |
| 2026-05-08 11:42 | 64.13148 | -21.94242 | 42 ft | 4 kts | 330° |
| 2026-05-08 11:42 | 64.13166 | -21.94240 | 42 ft | 2 kts | 15° |
| 2026-05-08 11:42 | 64.13167 | -21.94239 | 42 ft | 0 kts | 17° |
| 2026-05-08 11:44 | 64.13168 | -21.94238 | 42 ft | 0 kts | 16° |